Airfield :
LOGIN :

Register | Disclaimer

   EN    FR    IT 

 










Legend :    VFR   Marginal VFR   IFR   Intensive IFR   Very Intensive IFR
Visi :
Ceiling :
>= 8 km
>= 3000ft
5 to 8 km
1000 to 3000 ft
1500m to 5 km
500 to 1000 ft
800 to 1500m
200 to 500 ft
< 800m
< 200 ft
Symbols :   Thunderstorms  Fog  Heavy snow  Heavy precipitations  Wind > 20 kt
SIGMETs :     Misc.  Thunderstorms  Icing  Turbulence  Mountain Waves  Volcanic Ashes







- Airport Elevation : 358 ft
- Download approach charts


EGTC - Cranfield

CURRENT METAR :
  • 211520Z 18006KT 9999 -RA FEW040 21/13 Q1017

EXPIRED METARs :
  • 211450Z 16010KT 9999 FEW046 22/13 Q1018
  • 211420Z 18010KT 150V210 8000 FEW046 23/13 Q1018
  • 211350Z 15008KT CAVOK 22/13 Q1018
  • 211320Z 17005KT CAVOK 22/14 Q1019
  • 211250Z 18008KT 140V220 CAVOK 22/14 Q1019

TAF TAF EGTC
Valid from the 21 at 15:00 until the 21 at 18:00 UTC


211401Z 2115/2118 14010KT CAVOK
PROB30
TEMPO 2115/2118 5000 +SHRA TSGR BKN045CB
No reported NOTAMs for that airfield.



MET'MAP, your aeronautical weather chart ! - Copyright ORBIFLY December 2007 - Disclaimer

ORBIFLY MET'MAP TEAM :

Programming & Development : Alexandra Zaïnal
Concept & Development : Baudouin d'Aumeries
Co-Development & Prog : Marc-Olivier Méhu
Technical & hardware support : Manuel Goepfert

Contact : metmap@orbifly.com




SOURCES & CREDITS :

   NOAA